sensor_id;sensor_type;location;lat;lon;timestamp;pressure;altitude;pressure_sealevel;temperature;humidity
37860;BME280;23698;52.014;5.190;2023-04-03T00:01:09;102987.38;;;4.61;100.00
37860;BME280;23698;52.014;5.190;2023-04-03T00:03:56;102986.06;;;4.54;100.00
37860;BME280;23698;52.014;5.190;2023-04-03T00:06:43;102982.72;;;4.50;100.00
37860;BME280;23698;52.014;5.190;2023-04-03T00:09:29;102986.25;;;4.65;100.00
37860;BME280;23698;52.014;5.190;2023-04-03T00:12:16;102983.03;;;4.73;100.00
37860;BME280;23698;52.014;5.190;2023-04-03T00:15:02;102984.66;;;5.03;100.00
37860;BME280;23698;52.014;5.190;2023-04-03T00:17:49;102997.44;;;4.72;100.00
37860;BME280;23698;52.014;5.190;2023-04-03T00:20:37;102998.66;;;4.81;100.00
37860;BME280;23698;52.014;5.190;2023-04-03T00:23:24;102998.16;;;4.88;100.00
37860;BME280;23698;52.014;5.190;2023-04-03T00:26:10;103008.28;;;4.70;100.00
37860;BME280;23698;52.014;5.190;2023-04-03T00:28:58;103004.09;;;4.52;100.00
37860;BME280;23698;52.014;5.190;2023-04-03T00:31:44;103000.06;;;4.59;100.00
37860;BME280;23698;52.014;5.190;2023-04-03T00:34:31;102996.09;;;4.23;100.00
37860;BME280;23698;52.014;5.190;2023-04-03T00:37:19;102999.53;;;4.40;100.00
37860;BME280;23698;52.014;5.190;2023-04-03T00:40:07;102999.25;;;4.44;100.00
37860;BME280;23698;52.014;5.190;2023-04-03T00:42:56;103003.47;;;4.34;100.00
37860;BME280;23698;52.014;5.190;2023-04-03T00:45:44;102998.88;;;4.22;100.00
37860;BME280;23698;52.014;5.190;2023-04-03T00:48:33;103007.59;;;4.40;100.00
37860;BME280;23698;52.014;5.190;2023-04-03T00:51:24;103004.16;;;4.23;100.00
37860;BME280;23698;52.014;5.190;2023-04-03T00:54:12;103005.13;;;4.08;100.00
37860;BME280;23698;52.014;5.190;2023-04-03T00:56:59;102996.88;;;3.96;100.00
37860;BME280;23698;52.014;5.190;2023-04-03T00:59:49;103005.78;;;4.26;100.00
37860;BME280;23698;52.014;5.190;2023-04-03T01:02:36;103007.00;;;4.34;100.00
37860;BME280;23698;52.014;5.190;2023-04-03T01:05:27;103007.25;;;4.59;100.00
37860;BME280;23698;52.014;5.190;2023-04-03T01:08:13;103010.31;;;4.67;100.00
37860;BME280;23698;52.014;5.190;2023-04-03T01:11:03;103018.81;;;4.46;100.00
37860;BME280;23698;52.014;5.190;2023-04-03T01:13:50;103025.13;;;4.45;100.00
37860;BME280;23698;52.014;5.190;2023-04-03T01:16:36;103013.94;;;4.24;100.00
37860;BME280;23698;52.014;5.190;2023-04-03T01:19:24;103020.06;;;4.41;100.00
37860;BME280;23698;52.014;5.190;2023-04-03T01:22:15;103010.22;;;4.12;100.00
37860;BME280;23698;52.014;5.190;2023-04-03T01:25:05;103017.69;;;4.22;100.00
37860;BME280;23698;52.014;5.190;2023-04-03T01:27:54;103013.19;;;4.08;100.00
37860;BME280;23698;52.014;5.190;2023-04-03T01:30:44;103016.34;;;4.14;100.00
37860;BME280;23698;52.014;5.190;2023-04-03T01:33:35;103014.03;;;3.94;100.00
37860;BME280;23698;52.014;5.190;2023-04-03T01:36:24;103013.31;;;3.62;100.00
37860;BME280;23698;52.014;5.190;2023-04-03T01:39:12;103009.22;;;3.70;100.00
37860;BME280;23698;52.014;5.190;2023-04-03T01:41:58;103006.84;;;3.35;100.00
37860;BME280;23698;52.014;5.190;2023-04-03T01:44:49;103018.00;;;3.58;100.00
37860;BME280;23698;52.014;5.190;2023-04-03T01:47:35;103007.31;;;3.72;100.00
37860;BME280;23698;52.014;5.190;2023-04-03T01:50:24;103010.28;;;3.82;100.00
37860;BME280;23698;52.014;5.190;2023-04-03T01:53:10;103008.19;;;3.87;100.00
37860;BME280;23698;52.014;5.190;2023-04-03T01:55:57;103016.31;;;3.71;100.00
37860;BME280;23698;52.014;5.190;2023-04-03T01:58:44;103018.16;;;3.85;100.00
37860;BME280;23698;52.014;5.190;2023-04-03T02:01:30;103013.59;;;3.57;100.00
37860;BME280;23698;52.014;5.190;2023-04-03T02:04:16;103013.69;;;3.55;100.00
37860;BME280;23698;52.014;5.190;2023-04-03T02:07:04;103016.56;;;3.52;100.00
37860;BME280;23698;52.014;5.190;2023-04-03T02:09:51;103020.97;;;3.53;100.00
37860;BME280;23698;52.014;5.190;2023-04-03T02:12:37;103028.94;;;3.55;100.00
37860;BME280;23698;52.014;5.190;2023-04-03T02:15:24;103030.66;;;3.70;100.00
37860;BME280;23698;52.014;5.190;2023-04-03T02:18:11;103030.66;;;3.56;100.00
37860;BME280;23698;52.014;5.190;2023-04-03T02:20:57;103026.19;;;3.71;100.00
37860;BME280;23698;52.014;5.190;2023-04-03T02:23:45;103032.81;;;3.80;100.00
37860;BME280;23698;52.014;5.190;2023-04-03T02:26:31;103022.03;;;3.65;100.00
37860;BME280;23698;52.014;5.190;2023-04-03T02:29:17;103030.72;;;3.85;100.00
37860;BME280;23698;52.014;5.190;2023-04-03T02:32:04;103025.59;;;3.66;100.00
37860;BME280;23698;52.014;5.190;2023-04-03T02:34:51;103026.19;;;3.71;100.00
37860;BME280;23698;52.014;5.190;2023-04-03T02:37:38;103027.44;;;3.35;100.00
37860;BME280;23698;52.014;5.190;2023-04-03T02:40:26;103026.59;;;3.49;100.00
37860;BME280;23698;52.014;5.190;2023-04-03T02:43:12;103024.31;;;3.43;100.00
37860;BME280;23698;52.014;5.190;2023-04-03T02:45:59;103031.16;;;3.63;100.00
37860;BME280;23698;52.014;5.190;2023-04-03T02:48:45;103034.66;;;3.49;100.00
37860;BME280;23698;52.014;5.190;2023-04-03T02:51:32;103031.25;;;3.31;100.00
37860;BME280;23698;52.014;5.190;2023-04-03T02:54:18;103031.00;;;3.19;100.00
37860;BME280;23698;52.014;5.190;2023-04-03T02:57:11;103042.03;;;3.15;100.00
37860;BME280;23698;52.014;5.190;2023-04-03T02:59:57;103032.44;;;3.41;100.00
37860;BME280;23698;52.014;5.190;2023-04-03T03:02:44;103039.00;;;3.51;100.00
37860;BME280;23698;52.014;5.190;2023-04-03T03:05:31;103041.13;;;3.30;100.00
37860;BME280;23698;52.014;5.190;2023-04-03T03:08:17;103040.53;;;3.55;100.00
37860;BME280;23698;52.014;5.190;2023-04-03T03:11:05;103047.97;;;3.50;100.00
37860;BME280;23698;52.014;5.190;2023-04-03T03:13:53;103043.59;;;3.33;100.00
37860;BME280;23698;52.014;5.190;2023-04-03T03:16:39;103050.72;;;3.34;100.00
37860;BME280;23698;52.014;5.190;2023-04-03T03:19:26;103037.34;;;3.18;100.00
37860;BME280;23698;52.014;5.190;2023-04-03T03:22:12;103040.06;;;3.33;100.00
37860;BME280;23698;52.014;5.190;2023-04-03T03:24:59;103037.25;;;3.20;100.00
37860;BME280;23698;52.014;5.190;2023-04-03T03:27:45;103045.50;;;3.31;100.00
37860;BME280;23698;52.014;5.190;2023-04-03T03:30:33;103053.66;;;3.30;100.00
37860;BME280;23698;52.014;5.190;2023-04-03T03:33:20;103051.25;;;3.09;100.00
37860;BME280;23698;52.014;5.190;2023-04-03T03:36:06;103055.59;;;3.12;100.00
37860;BME280;23698;52.014;5.190;2023-04-03T03:38:54;103053.72;;;3.28;100.00
37860;BME280;23698;52.014;5.190;2023-04-03T03:41:41;103058.00;;;3.00;100.00
37860;BME280;23698;52.014;5.190;2023-04-03T03:44:27;103061.13;;;2.93;100.00
37860;BME280;23698;52.014;5.190;2023-04-03T03:47:15;103058.53;;;3.07;100.00
37860;BME280;23698;52.014;5.190;2023-04-03T03:50:02;103042.56;;;3.36;100.00
37860;BME280;23698;52.014;5.190;2023-04-03T03:52:48;103057.31;;;3.29;100.00
37860;BME280;23698;52.014;5.190;2023-04-03T03:55:35;103059.28;;;3.25;100.00
37860;BME280;23698;52.014;5.190;2023-04-03T03:58:22;103062.91;;;3.24;100.00
37860;BME280;23698;52.014;5.190;2023-04-03T04:01:09;103055.22;;;3.18;100.00
37860;BME280;23698;52.014;5.190;2023-04-03T04:04:01;103065.28;;;2.98;100.00
37860;BME280;23698;52.014;5.190;2023-04-03T04:06:49;103057.34;;;3.13;100.00
37860;BME280;23698;52.014;5.190;2023-04-03T04:09:37;103058.59;;;3.06;100.00
37860;BME280;23698;52.014;5.190;2023-04-03T04:12:26;103055.88;;;2.91;100.00
37860;BME280;23698;52.014;5.190;2023-04-03T04:15:12;103056.66;;;2.77;100.00
37860;BME280;23698;52.014;5.190;2023-04-03T04:17:59;103063.75;;;2.78;100.00
37860;BME280;23698;52.014;5.190;2023-04-03T04:20:47;103060.09;;;2.79;100.00
37860;BME280;23698;52.014;5.190;2023-04-03T04:23:35;103058.56;;;2.75;100.00
37860;BME280;23698;52.014;5.190;2023-04-03T04:26:21;103061.88;;;3.11;100.00
37860;BME280;23698;52.014;5.190;2023-04-03T04:29:08;103067.88;;;2.68;100.00
37860;BME280;23698;52.014;5.190;2023-04-03T04:31:55;103061.84;;;2.80;100.00
37860;BME280;23698;52.014;5.190;2023-04-03T04:34:41;103059.06;;;2.82;100.00
37860;BME280;23698;52.014;5.190;2023-04-03T04:37:29;103062.69;;;2.65;100.00
37860;BME280;23698;52.014;5.190;2023-04-03T04:40:16;103067.34;;;2.61;100.00
37860;BME280;23698;52.014;5.190;2023-04-03T04:43:03;103058.91;;;2.69;100.00
37860;BME280;23698;52.014;5.190;2023-04-03T04:46:00;103059.59;;;3.05;100.00
37860;BME280;23698;52.014;5.190;2023-04-03T04:48:47;103075.03;;;3.15;100.00
37860;BME280;23698;52.014;5.190;2023-04-03T04:51:36;103073.22;;;3.16;100.00
37860;BME280;23698;52.014;5.190;2023-04-03T04:54:38;103084.50;;;3.37;100.00
37860;BME280;23698;52.014;5.190;2023-04-03T04:57:25;103075.88;;;3.62;100.00
37860;BME280;23698;52.014;5.190;2023-04-03T05:00:13;103080.56;;;3.58;100.00
37860;BME280;23698;52.014;5.190;2023-04-03T05:03:00;103079.72;;;3.42;100.00
37860;BME280;23698;52.014;5.190;2023-04-03T05:05:46;103072.63;;;2.95;100.00
37860;BME280;23698;52.014;5.190;2023-04-03T05:08:33;103069.78;;;2.82;100.00
37860;BME280;23698;52.014;5.190;2023-04-03T05:11:23;103067.19;;;2.64;100.00
37860;BME280;23698;52.014;5.190;2023-04-03T05:14:09;103066.72;;;2.40;100.00
37860;BME280;23698;52.014;5.190;2023-04-03T05:16:57;103071.94;;;2.10;100.00
37860;BME280;23698;52.014;5.190;2023-04-03T05:19:46;103073.66;;;2.11;100.00
37860;BME280;23698;52.014;5.190;2023-04-03T05:22:34;103050.16;;;1.83;100.00
37860;BME280;23698;52.014;5.190;2023-04-03T05:25:24;103054.81;;;1.79;100.00
37860;BME280;23698;52.014;5.190;2023-04-03T05:28:14;103059.78;;;1.69;100.00
37860;BME280;23698;52.014;5.190;2023-04-03T05:31:01;103066.47;;;1.61;100.00
37860;BME280;23698;52.014;5.190;2023-04-03T05:33:52;103061.28;;;1.75;100.00
37860;BME280;23698;52.014;5.190;2023-04-03T05:36:39;103059.75;;;1.87;100.00
37860;BME280;23698;52.014;5.190;2023-04-03T05:39:26;103062.19;;;1.92;100.00
37860;BME280;23698;52.014;5.190;2023-04-03T05:42:13;103063.31;;;1.87;100.00
37860;BME280;23698;52.014;5.190;2023-04-03T05:45:03;103056.66;;;2.12;100.00
37860;BME280;23698;52.014;5.190;2023-04-03T05:47:50;103058.47;;;2.45;100.00
37860;BME280;23698;52.014;5.190;2023-04-03T05:50:37;103057.53;;;2.94;100.00
37860;BME280;23698;52.014;5.190;2023-04-03T05:53:31;103072.31;;;2.85;100.00
37860;BME280;23698;52.014;5.190;2023-04-03T05:56:22;103074.44;;;2.94;100.00
37860;BME280;23698;52.014;5.190;2023-04-03T05:59:09;103079.09;;;3.22;100.00
37860;BME280;23698;52.014;5.190;2023-04-03T06:01:57;103090.38;;;2.97;100.00
37860;BME280;23698;52.014;5.190;2023-04-03T06:04:43;103089.75;;;3.08;100.00
37860;BME280;23698;52.014;5.190;2023-04-03T06:07:30;103095.38;;;2.88;100.00
37860;BME280;23698;52.014;5.190;2023-04-03T06:10:16;103093.56;;;3.04;100.00
37860;BME280;23698;52.014;5.190;2023-04-03T06:13:05;103090.38;;;2.81;100.00
37860;BME280;23698;52.014;5.190;2023-04-03T06:15:52;103098.03;;;2.88;100.00
37860;BME280;23698;52.014;5.190;2023-04-03T06:18:40;103097.28;;;2.86;100.00
37860;BME280;23698;52.014;5.190;2023-04-03T06:21:27;103087.16;;;2.91;100.00
37860;BME280;23698;52.014;5.190;2023-04-03T06:24:15;103094.13;;;3.09;100.00
37860;BME280;23698;52.014;5.190;2023-04-03T06:27:02;103098.47;;;3.12;100.00
37860;BME280;23698;52.014;5.190;2023-04-03T06:29:48;103102.53;;;3.19;100.00
37860;BME280;23698;52.014;5.190;2023-04-03T06:32:34;103100.88;;;3.32;100.00
37860;BME280;23698;52.014;5.190;2023-04-03T06:35:22;103109.06;;;3.45;100.00
37860;BME280;23698;52.014;5.190;2023-04-03T06:38:10;103107.66;;;3.54;100.00
37860;BME280;23698;52.014;5.190;2023-04-03T06:40:57;103120.59;;;3.62;100.00
37860;BME280;23698;52.014;5.190;2023-04-03T06:43:44;103122.81;;;4.00;100.00
37860;BME280;23698;52.014;5.190;2023-04-03T06:46:30;103122.97;;;4.41;100.00
37860;BME280;23698;52.014;5.190;2023-04-03T06:49:18;103134.19;;;4.48;100.00
37860;BME280;23698;52.014;5.190;2023-04-03T06:52:06;103141.28;;;4.78;100.00
37860;BME280;23698;52.014;5.190;2023-04-03T06:54:52;103146.94;;;4.73;100.00
37860;BME280;23698;52.014;5.190;2023-04-03T06:57:42;103147.69;;;5.04;100.00
37860;BME280;23698;52.014;5.190;2023-04-03T07:00:28;103154.28;;;5.13;100.00
37860;BME280;23698;52.014;5.190;2023-04-03T07:03:15;103162.41;;;5.25;100.00
37860;BME280;23698;52.014;5.190;2023-04-03T07:06:01;103167.44;;;5.17;100.00
37860;BME280;23698;52.014;5.190;2023-04-03T07:08:49;103178.88;;;5.06;100.00
37860;BME280;23698;52.014;5.190;2023-04-03T07:11:36;103172.84;;;4.88;100.00
37860;BME280;23698;52.014;5.190;2023-04-03T07:14:23;103187.81;;;4.92;100.00
37860;BME280;23698;52.014;5.190;2023-04-03T07:17:09;103191.53;;;5.19;100.00
37860;BME280;23698;52.014;5.190;2023-04-03T07:19:56;103193.50;;;5.44;100.00
37860;BME280;23698;52.014;5.190;2023-04-03T07:22:42;103192.44;;;5.46;100.00
37860;BME280;23698;52.014;5.190;2023-04-03T07:25:30;103203.22;;;5.74;100.00
37860;BME280;23698;52.014;5.190;2023-04-03T07:28:17;103202.34;;;6.00;100.00
37860;BME280;23698;52.014;5.190;2023-04-03T07:31:06;103209.28;;;6.30;100.00
37860;BME280;23698;52.014;5.190;2023-04-03T07:33:54;103213.19;;;6.39;100.00
37860;BME280;23698;52.014;5.190;2023-04-03T07:36:41;103214.13;;;6.12;100.00
37860;BME280;23698;52.014;5.190;2023-04-03T07:39:27;103216.56;;;6.02;100.00
37860;BME280;23698;52.014;5.190;2023-04-03T07:42:15;103217.06;;;6.48;100.00
37860;BME280;23698;52.014;5.190;2023-04-03T07:45:01;103214.03;;;6.27;100.00
37860;BME280;23698;52.014;5.190;2023-04-03T07:47:48;103218.78;;;6.74;100.00
37860;BME280;23698;52.014;5.190;2023-04-03T07:50:34;103211.03;;;6.70;100.00
37860;BME280;23698;52.014;5.190;2023-04-03T07:53:21;103219.63;;;7.13;100.00
37860;BME280;23698;52.014;5.190;2023-04-03T07:56:08;103219.41;;;7.16;100.00
37860;BME280;23698;52.014;5.190;2023-04-03T07:58:56;103234.53;;;6.80;100.00
37860;BME280;23698;52.014;5.190;2023-04-03T08:01:43;103229.78;;;7.10;100.00
37860;BME280;23698;52.014;5.190;2023-04-03T08:04:30;103234.91;;;7.13;100.00
37860;BME280;23698;52.014;5.190;2023-04-03T08:07:16;103235.56;;;7.29;100.00
37860;BME280;23698;52.014;5.190;2023-04-03T08:10:03;103229.84;;;7.34;100.00
37860;BME280;23698;52.014;5.190;2023-04-03T08:12:49;103239.69;;;7.09;100.00
37860;BME280;23698;52.014;5.190;2023-04-03T08:15:37;103238.56;;;7.25;100.00
37860;BME280;23698;52.014;5.190;2023-04-03T08:18:24;103247.91;;;7.08;100.00
37860;BME280;23698;52.014;5.190;2023-04-03T08:21:12;103248.25;;;6.90;100.00
37860;BME280;23698;52.014;5.190;2023-04-03T08:23:58;103256.59;;;7.24;100.00
37860;BME280;23698;52.014;5.190;2023-04-03T08:26:45;103254.38;;;8.03;100.00
37860;BME280;23698;52.014;5.190;2023-04-03T08:29:31;103256.03;;;8.53;100.00
37860;BME280;23698;52.014;5.190;2023-04-03T08:32:20;103256.53;;;8.46;100.00
37860;BME280;23698;52.014;5.190;2023-04-03T08:35:07;103258.50;;;8.20;100.00
37860;BME280;23698;52.014;5.190;2023-04-03T08:37:53;103257.69;;;8.66;100.00
37860;BME280;23698;52.014;5.190;2023-04-03T08:40:40;103267.06;;;8.14;100.00
37860;BME280;23698;52.014;5.190;2023-04-03T08:43:36;103272.94;;;8.79;100.00
37860;BME280;23698;52.014;5.190;2023-04-03T08:46:40;103266.47;;;9.04;100.00
37860;BME280;23698;52.014;5.190;2023-04-03T08:49:33;103266.69;;;9.01;100.00
37860;BME280;23698;52.014;5.190;2023-04-03T08:52:29;103272.81;;;8.80;100.00
37860;BME280;23698;52.014;5.190;2023-04-03T08:55:22;103272.75;;;8.22;100.00
37860;BME280;23698;52.014;5.190;2023-04-03T08:58:12;103267.16;;;8.37;100.00
37860;BME280;23698;52.014;5.190;2023-04-03T09:01:03;103267.06;;;9.07;100.00
37860;BME280;23698;52.014;5.190;2023-04-03T09:03:51;103271.00;;;8.92;100.00
37860;BME280;23698;52.014;5.190;2023-04-03T09:06:41;103263.84;;;8.91;97.70
37860;BME280;23698;52.014;5.190;2023-04-03T09:09:33;103264.13;;;8.99;95.43
37860;BME280;23698;52.014;5.190;2023-04-03T09:12:24;103263.09;;;8.66;87.43
37860;BME280;23698;52.014;5.190;2023-04-03T09:15:17;103269.91;;;8.95;85.51
37860;BME280;23698;52.014;5.190;2023-04-03T09:18:25;103263.22;;;8.76;80.32
37860;BME280;23698;52.014;5.190;2023-04-03T09:21:20;103267.44;;;9.37;82.48
37860;BME280;23698;52.014;5.190;2023-04-03T09:24:12;103270.19;;;9.80;84.91
37860;BME280;23698;52.014;5.190;2023-04-03T09:27:04;103272.00;;;9.25;81.69
37860;BME280;23698;52.014;5.190;2023-04-03T09:29:55;103275.81;;;9.11;77.25
37860;BME280;23698;52.014;5.190;2023-04-03T09:32:45;103266.84;;;8.53;73.32
37860;BME280;23698;52.014;5.190;2023-04-03T09:35:33;103260.78;;;9.18;75.64
37860;BME280;23698;52.014;5.190;2023-04-03T09:38:32;103266.44;;;8.93;72.25
37860;BME280;23698;52.014;5.190;2023-04-03T09:41:21;103247.16;;;8.97;71.63
37860;BME280;23698;52.014;5.190;2023-04-03T09:44:21;103243.09;;;10.13;78.99
37860;BME280;23698;52.014;5.190;2023-04-03T09:47:21;103238.06;;;9.76;70.66
37860;BME280;23698;52.014;5.190;2023-04-03T09:50:20;103237.88;;;9.89;65.18
37860;BME280;23698;52.014;5.190;2023-04-03T09:53:26;103240.94;;;10.28;67.69
37860;BME280;23698;52.014;5.190;2023-04-03T09:56:23;103236.34;;;10.07;65.31
37860;BME280;23698;52.014;5.190;2023-04-03T09:59:14;103234.50;;;9.64;60.31
37860;BME280;23698;52.014;5.190;2023-04-03T10:02:04;103235.03;;;9.58;57.94
37860;BME280;23698;52.014;5.190;2023-04-03T10:05:23;103227.31;;;9.31;55.22
37860;BME280;23698;52.014;5.190;2023-04-03T10:08:21;103232.34;;;9.47;57.16
37860;BME280;23698;52.014;5.190;2023-04-03T10:11:14;103232.09;;;9.50;54.69
37860;BME280;23698;52.014;5.190;2023-04-03T10:14:02;103227.44;;;9.29;53.59
37860;BME280;23698;52.014;5.190;2023-04-03T10:16:56;103227.69;;;9.37;52.52
37860;BME280;23698;52.014;5.190;2023-04-03T10:19:47;103212.28;;;9.81;51.76
37860;BME280;23698;52.014;5.190;2023-04-03T10:22:45;103212.16;;;10.15;51.24
37860;BME280;23698;52.014;5.190;2023-04-03T10:25:42;103207.03;;;10.01;51.88
37860;BME280;23698;52.014;5.190;2023-04-03T10:28:35;103202.97;;;10.07;45.97
37860;BME280;23698;52.014;5.190;2023-04-03T10:31:32;103203.47;;;10.54;50.30
37860;BME280;23698;52.014;5.190;2023-04-03T10:34:23;103195.91;;;10.15;43.33
37860;BME280;23698;52.014;5.190;2023-04-03T10:37:17;103208.56;;;9.94;43.78
37860;BME280;23698;52.014;5.190;2023-04-03T10:40:17;103178.25;;;10.21;42.71
37860;BME280;23698;52.014;5.190;2023-04-03T10:43:09;103182.16;;;10.49;42.26
37860;BME280;23698;52.014;5.190;2023-04-03T10:46:03;103172.81;;;9.68;42.60
37860;BME280;23698;52.014;5.190;2023-04-03T10:49:04;103176.63;;;9.97;43.38
37860;BME280;23698;52.014;5.190;2023-04-03T10:51:56;103169.28;;;9.88;42.90
37860;BME280;23698;52.014;5.190;2023-04-03T10:54:57;103168.38;;;10.62;44.54
37860;BME280;23698;52.014;5.190;2023-04-03T10:57:48;103173.13;;;10.70;43.53
37860;BME280;23698;52.014;5.190;2023-04-03T11:00:39;103176.69;;;11.01;44.54
37860;BME280;23698;52.014;5.190;2023-04-03T11:03:30;103171.31;;;10.80;43.97
37860;BME280;23698;52.014;5.190;2023-04-03T11:06:21;103184.78;;;10.61;42.22
37860;BME280;23698;52.014;5.190;2023-04-03T11:09:18;103173.69;;;10.43;41.94
37860;BME280;23698;52.014;5.190;2023-04-03T11:12:10;103165.28;;;10.04;42.71
37860;BME280;23698;52.014;5.190;2023-04-03T11:14:58;103168.63;;;9.96;43.81
37860;BME280;23698;52.014;5.190;2023-04-03T11:17:53;103162.94;;;9.78;43.94
37860;BME280;23698;52.014;5.190;2023-04-03T11:20:43;103159.28;;;10.00;44.15
37860;BME280;23698;52.014;5.190;2023-04-03T11:23:34;103166.84;;;10.06;45.10
37860;BME280;23698;52.014;5.190;2023-04-03T11:26:38;103155.56;;;11.05;48.68
37860;BME280;23698;52.014;5.190;2023-04-03T11:29:29;103157.94;;;10.57;48.39
37860;BME280;23698;52.014;5.190;2023-04-03T11:32:48;103160.34;;;10.09;45.71
37860;BME280;23698;52.014;5.190;2023-04-03T11:35:42;103161.78;;;10.34;48.12
37860;BME280;23698;52.014;5.190;2023-04-03T11:38:33;103155.75;;;10.51;49.60
37860;BME280;23698;52.014;5.190;2023-04-03T11:41:26;103145.78;;;10.52;48.79
37860;BME280;23698;52.014;5.190;2023-04-03T11:44:30;103155.13;;;10.17;51.83
37860;BME280;23698;52.014;5.190;2023-04-03T11:47:45;103157.25;;;11.06;51.35
37860;BME280;23698;52.014;5.190;2023-04-03T11:50:45;103152.19;;;10.82;51.10
37860;BME280;23698;52.014;5.190;2023-04-03T11:53:34;103145.66;;;10.94;52.87
37860;BME280;23698;52.014;5.190;2023-04-03T11:56:29;103144.84;;;10.63;50.78
37860;BME280;23698;52.014;5.190;2023-04-03T11:59:23;103135.66;;;10.54;51.39
37860;BME280;23698;52.014;5.190;2023-04-03T12:02:34;103143.06;;;10.52;52.62
37860;BME280;23698;52.014;5.190;2023-04-03T12:05:38;103138.13;;;11.07;53.67
37860;BME280;23698;52.014;5.190;2023-04-03T12:08:25;103128.22;;;10.96;54.65
37860;BME280;23698;52.014;5.190;2023-04-03T12:11:24;103120.31;;;11.63;54.69
37860;BME280;23698;52.014;5.190;2023-04-03T12:14:14;103110.97;;;10.98;52.78
37860;BME280;23698;52.014;5.190;2023-04-03T12:17:01;103115.59;;;11.26;55.71
37860;BME280;23698;52.014;5.190;2023-04-03T12:19:48;103092.88;;;11.27;54.59
37860;BME280;23698;52.014;5.190;2023-04-03T12:22:34;103099.44;;;11.25;55.77
37860;BME280;23698;52.014;5.190;2023-04-03T12:25:47;103098.59;;;11.34;54.34
37860;BME280;23698;52.014;5.190;2023-04-03T12:28:39;103089.72;;;11.61;53.97
37860;BME280;23698;52.014;5.190;2023-04-03T12:31:40;103113.44;;;11.20;52.45
37860;BME280;23698;52.014;5.190;2023-04-03T12:34:44;103089.84;;;11.11;50.48
37860;BME280;23698;52.014;5.190;2023-04-03T12:37:48;103077.56;;;11.26;51.75
37860;BME280;23698;52.014;5.190;2023-04-03T12:40:43;103078.41;;;12.42;51.90
37860;BME280;23698;52.014;5.190;2023-04-03T12:43:44;103077.88;;;11.43;51.35
37860;BME280;23698;52.014;5.190;2023-04-03T12:46:37;103072.94;;;12.05;53.42
37860;BME280;23698;52.014;5.190;2023-04-03T12:49:35;103081.00;;;11.58;51.23
37860;BME280;23698;52.014;5.190;2023-04-03T12:52:32;103068.72;;;11.44;54.51
37860;BME280;23698;52.014;5.190;2023-04-03T12:55:20;103083.25;;;11.04;53.65
37860;BME280;23698;52.014;5.190;2023-04-03T12:58:14;103065.19;;;10.73;51.64
37860;BME280;23698;52.014;5.190;2023-04-03T13:01:08;103062.88;;;10.69;52.38
37860;BME280;23698;52.014;5.190;2023-04-03T13:03:58;103054.56;;;11.21;52.06
37860;BME280;23698;52.014;5.190;2023-04-03T13:06:44;103052.19;;;12.14;56.06
37860;BME280;23698;52.014;5.190;2023-04-03T13:09:31;103047.78;;;12.03;54.71
37860;BME280;23698;52.014;5.190;2023-04-03T13:12:17;103037.94;;;12.30;50.90
37860;BME280;23698;52.014;5.190;2023-04-03T13:15:13;103046.25;;;11.71;50.41
37860;BME280;23698;52.014;5.190;2023-04-03T13:18:03;103035.81;;;11.76;52.95
37860;BME280;23698;52.014;5.190;2023-04-03T13:20:50;103038.41;;;12.25;52.87
37860;BME280;23698;52.014;5.190;2023-04-03T13:23:40;103035.63;;;12.35;49.05
37860;BME280;23698;52.014;5.190;2023-04-03T13:26:30;103037.91;;;11.82;51.02
37860;BME280;23698;52.014;5.190;2023-04-03T13:29:22;103038.94;;;11.91;51.59
37860;BME280;23698;52.014;5.190;2023-04-03T13:32:22;103034.63;;;11.88;54.27
37860;BME280;23698;52.014;5.190;2023-04-03T13:38:24;103027.53;;;11.58;54.85
37860;BME280;23698;52.014;5.190;2023-04-03T13:41:24;103034.13;;;11.17;51.73
37860;BME280;23698;52.014;5.190;2023-04-03T13:44:26;103029.97;;;11.12;50.59
37860;BME280;23698;52.014;5.190;2023-04-03T13:47:18;103029.94;;;11.71;51.50
37860;BME280;23698;52.014;5.190;2023-04-03T13:50:15;103041.34;;;12.04;51.23
37860;BME280;23698;52.014;5.190;2023-04-03T13:53:09;103041.66;;;11.62;51.07
37860;BME280;23698;52.014;5.190;2023-04-03T13:56:06;103038.00;;;11.24;50.79
37860;BME280;23698;52.014;5.190;2023-04-03T13:59:04;103032.97;;;11.39;49.65
37860;BME280;23698;52.014;5.190;2023-04-03T14:01:53;103027.69;;;12.14;50.76
37860;BME280;23698;52.014;5.190;2023-04-03T14:04:51;103022.78;;;13.00;49.71
37860;BME280;23698;52.014;5.190;2023-04-03T14:07:38;103022.31;;;13.23;48.29
37860;BME280;23698;52.014;5.190;2023-04-03T14:10:24;103021.56;;;14.35;48.51
37860;BME280;23698;52.014;5.190;2023-04-03T14:13:14;103011.75;;;13.38;47.77
37860;BME280;23698;52.014;5.190;2023-04-03T14:16:01;103009.03;;;13.56;50.99
37860;BME280;23698;52.014;5.190;2023-04-03T14:18:59;102993.75;;;13.97;50.05
37860;BME280;23698;52.014;5.190;2023-04-03T14:21:46;102989.06;;;13.55;49.18
37860;BME280;23698;52.014;5.190;2023-04-03T14:24:32;102988.69;;;12.78;53.91
37860;BME280;23698;52.014;5.190;2023-04-03T14:27:24;102997.25;;;12.65;53.92
37860;BME280;23698;52.014;5.190;2023-04-03T14:30:17;102991.88;;;12.74;51.95
37860;BME280;23698;52.014;5.190;2023-04-03T14:33:06;102996.44;;;12.55;54.40
37860;BME280;23698;52.014;5.190;2023-04-03T14:35:53;102990.31;;;11.78;49.63
37860;BME280;23698;52.014;5.190;2023-04-03T14:38:43;102982.28;;;11.96;49.75
37860;BME280;23698;52.014;5.190;2023-04-03T14:41:30;102981.03;;;12.18;50.14
37860;BME280;23698;52.014;5.190;2023-04-03T14:44:16;102976.03;;;11.76;49.85
37860;BME280;23698;52.014;5.190;2023-04-03T14:47:04;102979.13;;;12.01;52.97
37860;BME280;23698;52.014;5.190;2023-04-03T14:49:58;102977.88;;;11.76;51.55
37860;BME280;23698;52.014;5.190;2023-04-03T14:52:44;102982.59;;;11.74;50.00